Time,TemperatureF,DewpointF,PressureIn,WindDirection,WindDirectionDegrees,WindSpeedMPH,WindSpeedGustMPH,Humidity,HourlyPrecipIn,Conditions,Clouds,dailyrainin,SoftwareType,DateUTC
2013-08-26 00:01:00,60.4,59.5,30.35,WSW,248,0.0,0.0,97,0.00,,---,0.00,VWS V14.00,2013-08-26 04:01:00,
2013-08-26 00:06:00,60.2,59.3,30.34,WSW,248,0.0,0.0,97,0.00,,---,0.00,VWS V14.00,2013-08-26 04:06:00,
2013-08-26 00:11:00,60.0,59.2,30.34,WSW,248,0.0,0.0,97,0.00,,---,0.00,VWS V14.00,2013-08-26 04:11:00,
2013-08-26 00:16:00,60.0,59.2,30.34,WSW,248,0.0,0.0,97,0.00,,---,0.00,VWS V14.00,2013-08-26 04:16:00,
2013-08-26 00:21:00,59.9,59.0,30.34,WSW,248,0.0,0.0,97,0.00,,---,0.00,VWS V14.00,2013-08-26 04:21:00,
2013-08-26 00:26:00,59.7,58.8,30.34,WSW,248,0.0,0.0,97,0.00,,---,0.00,VWS V14.00,2013-08-26 04:26:00,
2013-08-26 00:31:00,59.5,58.7,30.34,WSW,248,0.0,0.0,97,0.00,,---,0.00,VWS V14.00,2013-08-26 04:31:00,
2013-08-26 00:36:00,59.5,58.7,30.34,WSW,248,0.0,0.0,97,0.00,,---,0.00,VWS V14.00,2013-08-26 04:36:00,
2013-08-26 00:41:00,59.3,58.5,30.34,WSW,248,0.0,0.0,97,0.00,,---,0.00,VWS V14.00,2013-08-26 04:41:00,
2013-08-26 00:46:00,59.1,58.5,30.34,WSW,248,0.0,0.0,98,0.00,,---,0.00,VWS V14.00,2013-08-26 04:46:00,
2013-08-26 00:51:00,58.8,58.2,30.34,WSW,248,0.0,0.0,98,0.00,,---,0.00,VWS V14.00,2013-08-26 04:51:00,
2013-08-26 00:59:00,58.8,58.2,30.34,WSW,248,0.0,0.0,98,0.00,,---,0.00,VWS V14.00,2013-08-26 04:59:00,
2013-08-26 01:04:00,58.8,58.2,30.33,WSW,248,0.0,0.0,98,0.00,,---,0.00,VWS V14.00,2013-08-26 05:04:00,
2013-08-26 01:09:00,58.8,58.2,30.34,WSW,248,0.0,0.0,98,0.00,,---,0.00,VWS V14.00,2013-08-26 05:09:00,
2013-08-26 01:14:00,58.6,58.0,30.34,WSW,248,0.0,0.0,98,0.00,,---,0.00,VWS V14.00,2013-08-26 05:14:00,
2013-08-26 01:19:00,58.4,57.8,30.34,WSW,248,0.0,0.0,98,0.00,,---,0.00,VWS V14.00,2013-08-26 05:19:00,
2013-08-26 01:24:00,58.2,57.9,30.33,WSW,248,0.0,0.0,99,0.00,,---,0.00,VWS V14.00,2013-08-26 05:24:00,
2013-08-26 01:29:00,58.2,57.9,30.33,WSW,248,0.0,0.0,99,0.00,,---,0.00,VWS V14.00,2013-08-26 05:29:00,
2013-08-26 01:34:00,57.9,57.6,30.33,WSW,248,0.0,0.0,99,0.00,,---,0.00,VWS V14.00,2013-08-26 05:34:00,
2013-08-26 01:39:00,57.9,57.6,30.33,WSW,248,0.0,0.0,99,0.00,,---,0.00,VWS V14.00,2013-08-26 05:39:00,
2013-08-26 01:44:00,57.9,57.6,30.33,WSW,248,0.0,0.0,99,0.00,,---,0.00,VWS V14.00,2013-08-26 05:44:00,
2013-08-26 01:49:00,57.7,57.4,30.33,WSW,248,0.0,0.0,99,0.00,,---,0.00,VWS V14.00,2013-08-26 05:49:00,
2013-08-26 01:54:00,57.5,57.2,30.33,WSW,248,0.0,0.0,99,0.00,,---,0.00,VWS V14.00,2013-08-26 05:54:00,
2013-08-26 01:59:00,57.5,57.2,30.33,WSW,248,0.0,0.0,99,0.00,,---,0.00,VWS V14.00,2013-08-26 05:59:00,
2013-08-26 02:04:00,57.3,57.0,30.33,WSW,248,0.0,0.0,99,0.00,,---,0.00,VWS V14.00,2013-08-26 06:04:00,
2013-08-26 02:09:00,57.3,57.0,30.32,WSW,248,0.0,0.0,99,0.00,,---,0.00,VWS V14.00,2013-08-26 06:09:00,
2013-08-26 02:14:00,57.2,56.9,30.32,WSW,248,0.0,0.0,99,0.00,,---,0.00,VWS V14.00,2013-08-26 06:14:00,
2013-08-26 02:19:00,57.0,56.7,30.32,WSW,248,0.0,0.0,99,0.00,,---,0.00,VWS V14.00,2013-08-26 06:19:00,
2013-08-26 02:24:00,57.0,56.7,30.32,WSW,248,0.0,0.0,99,0.00,,---,0.00,VWS V14.00,2013-08-26 06:24:00,
2013-08-26 02:29:00,56.8,56.5,30.32,WSW,248,0.0,0.0,99,0.00,,---,0.00,VWS V14.00,2013-08-26 06:29:00,
2013-08-26 02:34:00,56.8,56.5,30.32,WSW,248,0.0,0.0,99,0.00,,---,0.00,VWS V14.00,2013-08-26 06:34:00,
2013-08-26 02:39:00,56.8,56.5,30.32,WSW,248,0.0,0.0,99,0.00,,---,0.00,VWS V14.00,2013-08-26 06:39:00,
2013-08-26 02:44:00,56.6,56.3,30.31,WSW,248,0.0,0.0,99,0.00,,---,0.00,VWS V14.00,2013-08-26 06:44:00,
2013-08-26 02:49:00,56.4,56.1,30.31,WSW,248,0.0,0.0,99,0.00,,---,0.00,VWS V14.00,2013-08-26 06:49:00,
2013-08-26 02:55:00,56.3,56.0,30.31,WSW,248,0.0,0.0,99,0.00,,---,0.00,VWS V14.00,2013-08-26 06:55:00,
2013-08-26 03:00:00,56.3,56.3,30.31,WSW,248,0.0,0.0,100,0.00,,---,0.00,VWS V14.00,2013-08-26 07:00:00,
2013-08-26 03:05:00,56.1,56.1,30.31,WSW,248,0.0,0.0,100,0.00,,---,0.00,VWS V14.00,2013-08-26 07:05:00,
2013-08-26 03:10:00,56.1,56.1,30.30,WSW,248,0.0,0.0,100,0.00,,---,0.00,VWS V14.00,2013-08-26 07:10:00,
2013-08-26 03:15:00,55.9,55.9,30.30,WSW,248,0.0,0.0,100,0.00,,---,0.00,VWS V14.00,2013-08-26 07:15:00,
2013-08-26 03:20:00,55.9,55.9,30.30,WSW,248,0.0,0.0,100,0.00,,---,0.00,VWS V14.00,2013-08-26 07:20:00,
2013-08-26 03:25:00,55.9,55.9,30.31,WSW,248,0.0,0.0,100,0.00,,---,0.00,VWS V14.00,2013-08-26 07:25:00,
2013-08-26 03:30:00,55.9,55.9,30.31,WSW,248,0.0,0.0,100,0.00,,---,0.00,VWS V14.00,2013-08-26 07:30:00,
2013-08-26 03:35:00,55.9,55.9,30.30,WSW,248,0.0,0.0,100,0.00,,---,0.00,VWS V14.00,2013-08-26 07:35:00,
2013-08-26 03:40:00,55.7,55.7,30.31,WSW,248,0.0,0.0,100,0.00,,---,0.00,VWS V14.00,2013-08-26 07:40:00,
2013-08-26 03:45:00,55.7,55.7,30.31,WSW,248,0.0,0.0,100,0.00,,---,0.00,VWS V14.00,2013-08-26 07:45:00,
2013-08-26 03:50:00,55.7,55.7,30.30,WSW,248,0.0,0.0,100,0.00,,---,0.00,VWS V14.00,2013-08-26 07:50:00,
2013-08-26 03:55:00,55.9,55.9,30.31,WSW,248,0.0,0.0,100,0.00,,---,0.00,VWS V14.00,2013-08-26 07:55:00,
2013-08-26 04:00:00,55.9,55.9,30.31,WSW,248,0.0,0.0,100,0.00,,---,0.00,VWS V14.00,2013-08-26 08:00:00,
2013-08-26 04:05:00,55.7,55.7,30.30,WSW,248,0.0,0.0,100,0.00,,---,0.00,VWS V14.00,2013-08-26 08:05:00,
2013-08-26 04:10:00,55.9,55.9,30.31,WSW,248,0.0,0.0,100,0.00,,---,0.00,VWS V14.00,2013-08-26 08:10:00,
2013-08-26 04:15:00,55.7,55.7,30.30,WSW,248,0.0,0.0,100,0.00,,---,0.00,VWS V14.00,2013-08-26 08:15:00,
2013-08-26 04:20:00,55.7,55.7,30.30,WSW,248,0.0,0.0,100,0.00,,---,0.00,VWS V14.00,2013-08-26 08:20:00,
2013-08-26 04:25:00,55.5,55.5,30.30,WSW,248,0.0,0.0,100,0.00,,---,0.00,VWS V14.00,2013-08-26 08:25:00,
2013-08-26 04:30:00,55.5,55.5,30.30,WSW,248,0.0,0.0,100,0.00,,---,0.00,VWS V14.00,2013-08-26 08:30:00,
2013-08-26 04:35:00,55.4,55.4,30.30,WSW,248,0.0,0.0,100,0.00,,---,0.00,VWS V14.00,2013-08-26 08:35:00,
2013-08-26 04:40:00,55.2,55.2,30.30,WSW,248,0.0,0.0,100,0.00,,---,0.00,VWS V14.00,2013-08-26 08:40:00,
2013-08-26 04:45:00,55.2,55.2,30.30,WSW,248,0.0,0.0,100,0.00,,---,0.00,VWS V14.00,2013-08-26 08:45:00,
2013-08-26 04:50:00,55.2,55.2,30.30,WSW,248,0.0,0.0,100,0.00,,---,0.00,VWS V14.00,2013-08-26 08:50:00,
2013-08-26 04:55:00,55.0,55.0,30.30,WSW,248,0.0,0.0,100,0.00,,---,0.00,VWS V14.00,2013-08-26 08:55:00,
2013-08-26 05:01:00,54.8,54.8,30.30,WSW,248,0.0,0.0,100,0.00,,---,0.00,VWS V14.00,2013-08-26 09:01:00,
2013-08-26 05:06:00,54.6,54.6,30.30,WSW,248,0.0,0.0,100,0.00,,---,0.00,VWS V14.00,2013-08-26 09:06:00,
2013-08-26 05:11:00,54.6,54.6,30.30,WSW,248,0.0,0.0,100,0.00,,---,0.00,VWS V14.00,2013-08-26 09:11:00,
2013-08-26 05:16:00,54.6,54.6,30.30,WSW,248,0.0,0.0,100,0.00,,---,0.00,VWS V14.00,2013-08-26 09:16:00,
2013-08-26 05:21:00,54.6,54.6,30.30,WSW,248,0.0,0.0,100,0.00,,---,0.00,VWS V14.00,2013-08-26 09:21:00,
2013-08-26 05:26:00,54.6,54.6,30.30,WSW,248,0.0,0.0,100,0.00,,---,0.00,VWS V14.00,2013-08-26 09:26:00,
2013-08-26 05:31:00,54.8,54.8,30.30,WSW,248,0.0,0.0,100,0.00,,---,0.00,VWS V14.00,2013-08-26 09:31:00,
2013-08-26 05:36:00,55.0,55.0,30.29,WSW,248,0.0,0.0,100,0.00,,---,0.00,VWS V14.00,2013-08-26 09:36:00,
2013-08-26 05:41:00,55.0,55.0,30.29,WSW,248,0.0,0.0,100,0.00,,---,0.00,VWS V14.00,2013-08-26 09:41:00,
2013-08-26 05:46:00,55.0,55.0,30.29,WSW,248,0.0,0.0,100,0.00,,---,0.00,VWS V14.00,2013-08-26 09:46:00,
2013-08-26 05:51:00,55.2,55.2,30.29,WSW,248,0.0,0.0,100,0.00,,---,0.00,VWS V14.00,2013-08-26 09:51:00,
2013-08-26 05:56:00,55.2,55.2,30.29,WSW,248,0.0,0.0,100,0.00,,---,0.00,VWS V14.00,2013-08-26 09:56:00,
2013-08-26 06:01:00,55.2,55.2,30.30,WSW,248,0.0,0.0,100,0.00,,---,0.00,VWS V14.00,2013-08-26 10:01:00,
2013-08-26 06:06:00,55.2,55.2,30.30,WSW,248,0.0,0.0,100,0.00,,---,0.00,VWS V14.00,2013-08-26 10:06:00,
2013-08-26 06:11:00,55.2,55.2,30.29,WSW,248,0.0,0.0,100,0.00,,---,0.00,VWS V14.00,2013-08-26 10:11:00,
2013-08-26 06:16:00,55.2,55.2,30.29,WSW,248,0.0,0.0,100,0.00,,---,0.00,VWS V14.00,2013-08-26 10:16:00,
2013-08-26 06:21:00,55.2,55.2,30.29,WSW,248,0.0,0.0,100,0.00,,---,0.00,VWS V14.00,2013-08-26 10:21:00,
2013-08-26 06:26:00,55.2,55.2,30.30,WSW,248,0.0,0.0,100,0.00,,---,0.00,VWS V14.00,2013-08-26 10:26:00,
2013-08-26 06:31:00,55.2,55.2,30.29,WSW,248,0.0,0.0,100,0.00,,---,0.00,VWS V14.00,2013-08-26 10:31:00,
2013-08-26 06:36:00,55.2,55.2,30.29,WSW,248,0.0,0.0,100,0.00,,---,0.00,VWS V14.00,2013-08-26 10:36:00,
2013-08-26 06:41:00,55.2,55.2,30.29,WSW,248,0.0,0.0,100,0.00,,---,0.00,VWS V14.00,2013-08-26 10:41:00,
2013-08-26 06:46:00,55.2,55.2,30.30,WSW,248,0.0,0.0,100,0.00,,---,0.00,VWS V14.00,2013-08-26 10:46:00,
2013-08-26 06:51:00,55.2,55.2,30.30,WSW,248,0.0,0.0,100,0.00,,---,0.00,VWS V14.00,2013-08-26 10:51:00,
2013-08-26 06:56:00,55.4,55.4,30.30,WSW,248,0.0,0.0,100,0.00,,---,0.00,VWS V14.00,2013-08-26 10:56:00,
2013-08-26 07:01:00,55.4,55.4,30.30,WSW,248,0.0,0.0,100,0.00,,---,0.00,VWS V14.00,2013-08-26 11:01:00,
2013-08-26 07:06:00,55.5,55.5,30.30,WSW,248,0.0,0.0,100,0.00,,---,0.00,VWS V14.00,2013-08-26 11:06:00,
2013-08-26 07:11:00,55.5,55.5,30.30,WSW,248,0.0,0.0,100,0.00,,---,0.00,VWS V14.00,2013-08-26 11:11:00,
2013-08-26 07:16:00,55.7,55.7,30.30,WSW,248,0.0,0.0,100,0.00,,---,0.00,VWS V14.00,2013-08-26 11:16:00,
2013-08-26 07:21:00,55.7,55.7,30.30,WSW,248,0.0,0.0,100,0.00,,---,0.00,VWS V14.00,2013-08-26 11:21:00,
2013-08-26 07:26:00,55.9,55.9,30.30,WSW,248,0.0,0.0,100,0.00,,---,0.00,VWS V14.00,2013-08-26 11:26:00,
2013-08-26 07:31:00,55.9,55.9,30.31,WSW,248,0.0,0.0,100,0.00,,---,0.00,VWS V14.00,2013-08-26 11:31:00,
2013-08-26 07:36:00,56.1,56.1,30.31,WSW,248,0.0,0.0,100,0.00,,---,0.00,VWS V14.00,2013-08-26 11:36:00,
2013-08-26 07:42:00,56.3,56.3,30.30,WSW,248,0.0,0.0,100,0.00,,---,0.00,VWS V14.00,2013-08-26 11:42:00,
2013-08-26 07:47:00,56.4,56.4,30.30,WSW,248,0.0,0.0,100,0.00,,---,0.00,VWS V14.00,2013-08-26 11:47:00,
2013-08-26 07:52:00,56.6,56.6,30.30,WSW,248,0.0,0.0,100,0.00,,---,0.00,VWS V14.00,2013-08-26 11:52:00,
2013-08-26 07:57:00,56.8,56.8,30.31,WSW,248,0.0,0.0,100,0.00,,---,0.00,VWS V14.00,2013-08-26 11:57:00,
2013-08-26 08:02:00,57.0,57.0,30.31,WSW,248,0.0,0.0,100,0.00,,---,0.00,VWS V14.00,2013-08-26 12:02:00,
2013-08-26 08:07:00,57.2,57.2,30.31,WSW,248,0.0,0.0,100,0.00,,---,0.00,VWS V14.00,2013-08-26 12:07:00,
2013-08-26 08:12:00,57.3,57.3,30.31,WSW,248,0.0,0.0,100,0.00,,---,0.00,VWS V14.00,2013-08-26 12:12:00,
2013-08-26 08:17:00,57.7,57.7,30.31,WSW,248,0.0,0.0,100,0.00,,---,0.00,VWS V14.00,2013-08-26 12:17:00,
2013-08-26 08:22:00,57.9,57.9,30.30,WSW,248,0.0,0.0,100,0.00,,---,0.00,VWS V14.00,2013-08-26 12:22:00,
2013-08-26 08:27:00,57.9,57.9,30.31,WSW,248,0.0,0.0,100,0.00,,---,0.00,VWS V14.00,2013-08-26 12:27:00,
2013-08-26 08:32:00,58.1,58.1,30.31,WSW,248,0.0,0.0,100,0.00,,---,0.00,VWS V14.00,2013-08-26 12:32:00,
2013-08-26 08:37:00,58.4,58.4,30.31,WSW,248,0.0,0.0,100,0.00,,---,0.00,VWS V14.00,2013-08-26 12:37:00,
2013-08-26 08:42:00,58.8,58.8,30.31,WSW,248,0.0,0.0,100,0.00,,---,0.00,VWS V14.00,2013-08-26 12:42:00,
2013-08-26 08:47:00,58.8,58.8,30.31,WSW,248,0.0,0.0,100,0.00,,---,0.00,VWS V14.00,2013-08-26 12:47:00,
2013-08-26 08:52:00,59.3,59.3,30.31,WSW,248,0.0,0.0,100,0.00,,---,0.00,VWS V14.00,2013-08-26 12:52:00,
2013-08-26 08:57:00,59.7,59.7,30.31,WSW,248,0.0,0.0,100,0.00,,---,0.00,VWS V14.00,2013-08-26 12:57:00,
2013-08-26 09:02:00,60.0,60.0,30.31,WSW,248,0.0,0.0,100,0.00,,---,0.00,VWS V14.00,2013-08-26 13:02:00,
2013-08-26 09:07:00,60.6,60.6,30.31,WSW,248,0.0,0.0,100,0.00,,---,0.00,VWS V14.00,2013-08-26 13:07:00,
2013-08-26 09:12:00,60.9,60.9,30.31,WSW,248,0.0,0.0,100,0.00,,---,0.00,VWS V14.00,2013-08-26 13:12:00,
2013-08-26 09:17:00,61.5,61.5,30.31,WSW,248,0.0,0.0,100,0.00,,---,0.00,VWS V14.00,2013-08-26 13:17:00,
2013-08-26 09:22:00,62.2,62.2,30.31,WSW,248,0.0,0.0,100,0.00,,---,0.00,VWS V14.00,2013-08-26 13:22:00,
2013-08-26 09:27:00,63.1,63.1,30.31,WSW,248,0.0,0.0,100,0.00,,---,0.00,VWS V14.00,2013-08-26 13:27:00,
2013-08-26 09:32:00,63.6,63.3,30.31,WSW,248,0.0,0.0,99,0.00,,---,0.00,VWS V14.00,2013-08-26 13:32:00,
2013-08-26 09:37:00,64.2,63.9,30.32,WSW,248,0.0,0.0,99,0.00,,---,0.00,VWS V14.00,2013-08-26 13:37:00,
2013-08-26 09:42:00,64.9,64.3,30.32,WSW,248,0.0,0.0,98,0.00,,---,0.00,VWS V14.00,2013-08-26 13:42:00,
2013-08-26 09:47:00,65.4,64.5,30.32,WSW,248,0.0,0.0,97,0.00,,---,0.00,VWS V14.00,2013-08-26 13:47:00,
2013-08-26 09:52:00,66.0,64.8,30.32,WSW,248,0.0,0.0,96,0.00,,---,0.00,VWS V14.00,2013-08-26 13:52:00,
2013-08-26 09:57:00,66.7,65.2,30.32,WSW,248,0.0,0.0,95,0.00,,---,0.00,VWS V14.00,2013-08-26 13:57:00,
2013-08-26 10:02:00,67.2,65.7,30.32,WSW,248,0.0,0.0,95,0.00,,---,0.00,VWS V14.00,2013-08-26 14:02:00,
2013-08-26 10:07:00,67.8,66.0,30.31,WSW,248,0.0,0.0,94,0.00,,---,0.00,VWS V14.00,2013-08-26 14:07:00,
2013-08-26 10:12:00,68.9,66.8,30.31,WSW,248,0.0,0.0,93,0.00,,---,0.00,VWS V14.00,2013-08-26 14:12:00,
2013-08-26 10:17:00,69.4,67.3,30.31,WSW,248,0.0,0.0,93,0.00,,---,0.00,VWS V14.00,2013-08-26 14:17:00,
2013-08-26 10:22:00,70.1,67.7,30.31,WSW,248,0.0,0.0,92,0.00,,---,0.00,VWS V14.00,2013-08-26 14:22:00,
2013-08-26 10:27:00,70.8,68.1,30.31,WSW,248,0.0,0.0,91,0.00,,---,0.00,VWS V14.00,2013-08-26 14:27:00,
2013-08-26 10:32:00,71.2,67.8,30.31,WSW,248,0.0,0.0,89,0.00,,---,0.00,VWS V14.00,2013-08-26 14:32:00,
2013-08-26 10:37:00,71.7,68.3,30.32,West,270,0.0,0.0,89,0.00,,---,0.00,VWS V14.00,2013-08-26 14:37:00,
2013-08-26 10:42:00,71.9,68.2,30.32,West,270,0.0,0.0,88,0.00,,---,0.00,VWS V14.00,2013-08-26 14:42:00,
2013-08-26 10:47:00,72.3,68.6,30.32,ESE,112,0.0,0.0,88,0.00,,---,0.00,VWS V14.00,2013-08-26 14:47:00,
2013-08-26 10:52:00,72.5,68.8,30.32,SW,225,0.0,0.0,88,0.00,,---,0.00,VWS V14.00,2013-08-26 14:52:00,
2013-08-26 10:58:00,73.0,68.9,30.32,NW,315,0.0,0.0,87,0.00,,---,0.00,VWS V14.00,2013-08-26 14:58:00,
2013-08-26 11:03:00,73.5,69.4,30.31,WNW,292,0.0,0.0,87,0.00,,---,0.00,VWS V14.00,2013-08-26 15:03:00,
2013-08-26 11:08:00,73.9,69.8,30.31,NW,315,0.0,0.0,87,0.00,,---,0.00,VWS V14.00,2013-08-26 15:08:00,
2013-08-26 11:13:00,74.4,69.6,30.31,West,270,0.0,0.0,85,0.00,,---,0.00,VWS V14.00,2013-08-26 15:13:00,
2013-08-26 11:18:00,74.4,69.3,30.32,ESE,112,0.0,0.0,84,0.00,,---,0.00,VWS V14.00,2013-08-26 15:18:00,
2013-08-26 11:23:00,74.6,69.4,30.31,NE,45,0.0,0.0,84,0.00,,---,0.00,VWS V14.00,2013-08-26 15:23:00,
2013-08-26 11:28:00,75.0,69.5,30.31,ESE,112,0.0,0.0,83,0.00,,---,0.00,VWS V14.00,2013-08-26 15:28:00,
2013-08-26 11:33:00,75.3,69.1,30.31,ENE,68,0.0,0.0,81,0.00,,---,0.00,VWS V14.00,2013-08-26 15:33:00,
2013-08-26 11:38:00,75.5,69.6,30.31,ENE,68,0.0,0.0,82,0.00,,---,0.00,VWS V14.00,2013-08-26 15:38:00,
2013-08-26 11:43:00,75.9,70.0,30.31,NW,315,0.0,0.0,82,0.00,,---,0.00,VWS V14.00,2013-08-26 15:43:00,
2013-08-26 11:48:00,76.6,70.7,30.31,WSW,248,0.0,0.0,82,0.00,,---,0.00,VWS V14.00,2013-08-26 15:48:00,
2013-08-26 11:53:00,76.8,70.9,30.31,ESE,112,0.0,0.0,82,0.00,,---,0.00,VWS V14.00,2013-08-26 15:53:00,
2013-08-26 11:58:00,77.0,70.7,30.31,WNW,292,0.0,0.0,81,0.00,,---,0.00,VWS V14.00,2013-08-26 15:58:00,
2013-08-26 12:03:00,77.1,70.1,30.30,NE,45,0.0,0.0,79,0.00,,---,0.00,VWS V14.00,2013-08-26 16:03:00,
2013-08-26 12:08:00,77.0,70.4,30.30,WSW,248,0.0,0.0,80,0.00,,---,0.00,VWS V14.00,2013-08-26 16:08:00,
2013-08-26 12:13:00,76.8,70.2,30.30,West,270,0.0,0.0,80,0.00,,---,0.00,VWS V14.00,2013-08-26 16:13:00,
2013-08-26 12:18:00,77.0,70.4,30.30,WNW,292,0.0,0.0,80,0.00,,---,0.00,VWS V14.00,2013-08-26 16:18:00,
2013-08-26 12:23:00,77.9,70.5,30.29,SW,225,0.0,0.0,78,0.00,,---,0.00,VWS V14.00,2013-08-26 16:23:00,
2013-08-26 12:28:00,78.4,71.3,30.29,WSW,248,0.0,0.0,79,0.00,,---,0.00,VWS V14.00,2013-08-26 16:28:00,
2013-08-26 12:33:00,78.9,71.5,30.29,West,270,0.0,0.0,78,0.00,,---,0.00,VWS V14.00,2013-08-26 16:33:00,
2013-08-26 12:38:00,79.3,71.8,30.29,West,270,0.0,0.0,78,0.00,,---,0.00,VWS V14.00,2013-08-26 16:38:00,
2013-08-26 12:43:00,79.5,71.7,30.28,SE,135,0.0,0.0,77,0.00,,---,0.00,VWS V14.00,2013-08-26 16:43:00,
2013-08-26 12:48:00,79.7,71.5,30.28,ESE,112,0.0,0.0,76,0.00,,---,0.00,VWS V14.00,2013-08-26 16:48:00,
2013-08-26 12:53:00,79.8,71.6,30.28,NW,315,0.0,0.0,76,0.00,,---,0.00,VWS V14.00,2013-08-26 16:53:00,
2013-08-26 12:58:00,79.8,71.6,30.28,West,270,0.0,0.0,76,0.00,,---,0.00,VWS V14.00,2013-08-26 16:58:00,
2013-08-26 13:03:00,80.2,71.6,30.27,ENE,68,0.0,0.0,75,0.00,,---,0.00,VWS V14.00,2013-08-26 17:03:00,
2013-08-26 13:08:00,80.2,71.2,30.27,NNE,22,0.0,0.0,74,0.00,,---,0.00,VWS V14.00,2013-08-26 17:08:00,
2013-08-26 13:13:00,80.4,71.4,30.27,WNW,292,0.0,0.0,74,0.00,,---,0.00,VWS V14.00,2013-08-26 17:13:00,
2013-08-26 13:18:00,80.6,71.6,30.27,WNW,292,0.0,0.0,74,0.00,,---,0.00,VWS V14.00,2013-08-26 17:18:00,
2013-08-26 13:23:00,80.7,71.2,30.27,WNW,292,0.0,0.0,73,0.00,,---,0.00,VWS V14.00,2013-08-26 17:23:00,
2013-08-26 13:28:00,80.2,71.2,30.27,WNW,292,0.0,0.0,74,0.00,,---,0.00,VWS V14.00,2013-08-26 17:28:00,
2013-08-26 13:33:00,79.3,70.7,30.27,ENE,68,0.0,0.0,75,0.00,,---,0.00,VWS V14.00,2013-08-26 17:33:00,
2013-08-26 13:38:00,79.5,71.3,30.27,West,270,0.0,0.0,76,0.00,,---,0.00,VWS V14.00,2013-08-26 17:38:00,
2013-08-26 13:43:00,80.2,70.8,30.26,ENE,68,0.0,0.0,73,0.00,,---,0.00,VWS V14.00,2013-08-26 17:43:00,
2013-08-26 13:48:00,80.4,69.7,30.26,West,270,0.0,0.0,70,0.00,,---,0.00,VWS V14.00,2013-08-26 17:48:00,
2013-08-26 13:53:00,80.9,71.0,30.26,ENE,68,0.0,0.0,72,0.00,,---,0.00,VWS V14.00,2013-08-26 17:53:00,
2013-08-26 13:58:00,81.5,71.2,30.26,NW,315,0.0,0.0,71,0.00,,---,0.00,VWS V14.00,2013-08-26 17:58:00,
2013-08-26 14:03:00,81.6,71.7,30.26,NW,315,0.0,0.0,72,0.00,,---,0.00,VWS V14.00,2013-08-26 18:03:00,
2013-08-26 14:08:00,82.0,71.7,30.26,NW,315,0.0,0.0,71,0.00,,---,0.00,VWS V14.00,2013-08-26 18:08:00,
2013-08-26 14:13:00,81.6,70.9,30.26,NE,45,0.0,0.0,70,0.00,,---,0.00,VWS V14.00,2013-08-26 18:13:00,
2013-08-26 14:18:00,80.6,70.3,30.25,NNE,22,0.0,0.0,71,0.00,,---,0.00,VWS V14.00,2013-08-26 18:18:00,
2013-08-26 14:24:00,80.0,70.6,30.26,NNE,22,0.0,0.0,73,0.00,,---,0.00,VWS V14.00,2013-08-26 18:24:00,
2013-08-26 14:29:00,79.8,70.4,30.25,ENE,68,0.0,0.0,73,0.00,,---,0.00,VWS V14.00,2013-08-26 18:29:00,
2013-08-26 14:34:00,80.6,71.2,30.24,SE,135,0.0,0.0,73,0.00,,---,0.00,VWS V14.00,2013-08-26 18:34:00,
2013-08-26 14:39:00,81.1,71.6,30.24,West,270,0.0,0.0,73,0.00,,---,0.00,VWS V14.00,2013-08-26 18:39:00,
2013-08-26 14:44:00,81.3,71.4,30.24,West,270,0.0,0.0,72,0.00,,---,0.00,VWS V14.00,2013-08-26 18:44:00,
2013-08-26 14:49:00,80.6,70.8,30.24,West,270,0.0,0.0,72,0.00,,---,0.00,VWS V14.00,2013-08-26 18:49:00,
2013-08-26 14:54:00,80.4,71.0,30.24,West,270,0.0,0.0,73,0.00,,---,0.00,VWS V14.00,2013-08-26 18:54:00,
2013-08-26 14:59:00,80.6,70.8,30.23,West,270,0.0,0.0,72,0.00,,---,0.00,VWS V14.00,2013-08-26 18:59:00,
2013-08-26 15:04:00,80.4,70.6,30.23,WSW,248,0.0,0.0,72,0.00,,---,0.00,VWS V14.00,2013-08-26 19:04:00,
2013-08-26 15:09:00,80.6,71.2,30.23,WNW,292,0.0,0.0,73,0.00,,---,0.00,VWS V14.00,2013-08-26 19:09:00,
2013-08-26 15:14:00,80.2,70.4,30.23,WNW,292,0.0,0.0,72,0.00,,---,0.00,VWS V14.00,2013-08-26 19:14:00,
2013-08-26 15:19:00,79.5,70.1,30.22,WSW,248,0.0,0.0,73,0.00,,---,0.00,VWS V14.00,2013-08-26 19:19:00,
2013-08-26 15:24:00,79.5,70.1,30.22,WSW,248,0.0,0.0,73,0.00,,---,0.00,VWS V14.00,2013-08-26 19:24:00,
2013-08-26 15:29:00,79.5,70.1,30.22,WSW,248,0.0,0.0,73,0.00,,---,0.00,VWS V14.00,2013-08-26 19:29:00,
2013-08-26 15:34:00,79.3,69.5,30.22,ENE,68,0.0,0.0,72,0.00,,---,0.00,VWS V14.00,2013-08-26 19:34:00,
2013-08-26 15:39:00,78.8,69.4,30.22,ENE,68,0.0,0.0,73,0.00,,---,0.00,VWS V14.00,2013-08-26 19:39:00,
2013-08-26 15:44:00,78.6,69.6,30.21,ENE,68,0.0,0.0,74,0.00,,---,0.00,VWS V14.00,2013-08-26 19:44:00,
2013-08-26 15:49:00,78.6,68.0,30.21,NE,45,0.0,0.0,70,0.00,,---,0.00,VWS V14.00,2013-08-26 19:49:00,
2013-08-26 15:54:00,79.1,68.9,30.21,NNW,338,0.0,0.0,71,0.00,,---,0.00,VWS V14.00,2013-08-26 19:54:00,
2013-08-26 15:58:00,79.5,69.3,30.21,NW,315,0.0,0.0,71,0.00,,---,0.00,VWS V14.00,2013-08-26 19:58:00,
2013-08-26 16:03:00,79.8,70.0,30.20,West,270,0.0,0.0,72,0.00,,---,0.00,VWS V14.00,2013-08-26 20:03:00,
2013-08-26 16:09:00,80.0,70.2,30.20,West,270,0.0,0.0,72,0.00,,---,0.00,VWS V14.00,2013-08-26 20:09:00,
2013-08-26 16:14:00,80.0,70.2,30.20,West,270,0.0,0.0,72,0.00,,---,0.00,VWS V14.00,2013-08-26 20:14:00,
2013-08-26 16:19:00,79.8,70.4,30.20,West,270,0.0,0.0,73,0.00,,---,0.00,VWS V14.00,2013-08-26 20:19:00,
2013-08-26 16:24:00,80.0,70.6,30.19,West,270,0.0,0.0,73,0.00,,---,0.00,VWS V14.00,2013-08-26 20:24:00,
2013-08-26 16:29:00,80.4,71.0,30.20,West,270,0.0,0.0,73,0.00,,---,0.00,VWS V14.00,2013-08-26 20:29:00,
2013-08-26 16:34:00,80.4,71.0,30.19,West,270,0.0,0.0,73,0.00,,---,0.00,VWS V14.00,2013-08-26 20:34:00,
2013-08-26 16:39:00,80.4,70.6,30.20,West,270,0.0,0.0,72,0.00,,---,0.00,VWS V14.00,2013-08-26 20:39:00,
2013-08-26 16:44:00,80.2,70.4,30.19,West,270,0.0,0.0,72,0.00,,---,0.00,VWS V14.00,2013-08-26 20:44:00,
2013-08-26 16:49:00,80.0,69.8,30.19,WNW,292,0.0,0.0,71,0.00,,---,0.00,VWS V14.00,2013-08-26 20:49:00,
2013-08-26 16:54:00,79.7,69.5,30.19,NNE,22,0.0,0.0,71,0.00,,---,0.00,VWS V14.00,2013-08-26 20:54:00,
2013-08-26 16:59:00,78.9,69.1,30.19,NNE,22,0.0,0.0,72,0.00,,---,0.00,VWS V14.00,2013-08-26 20:59:00,
2013-08-26 17:04:00,78.4,69.0,30.18,North,0,0.0,0.0,73,0.00,,---,0.00,VWS V14.00,2013-08-26 21:04:00,
2013-08-26 17:09:00,78.0,69.1,30.18,WSW,248,0.0,0.0,74,0.00,,---,0.00,VWS V14.00,2013-08-26 21:09:00,
2013-08-26 17:14:00,77.7,68.8,30.18,NNE,22,0.0,0.0,74,0.00,,---,0.00,VWS V14.00,2013-08-26 21:14:00,
2013-08-26 17:19:00,77.1,68.2,30.18,ENE,68,0.0,0.0,74,0.00,,---,0.00,VWS V14.00,2013-08-26 21:19:00,
2013-08-26 17:24:00,76.8,68.3,30.18,ENE,68,0.0,0.0,75,0.00,,---,0.00,VWS V14.00,2013-08-26 21:24:00,
2013-08-26 17:29:00,76.8,67.9,30.18,ENE,68,0.0,0.0,74,0.00,,---,0.00,VWS V14.00,2013-08-26 21:29:00,
2013-08-26 17:34:00,77.0,68.5,30.18,SE,135,0.0,0.0,75,0.00,,---,0.00,VWS V14.00,2013-08-26 21:34:00,
2013-08-26 17:39:00,77.3,69.2,30.18,West,270,0.0,0.0,76,0.00,,---,0.00,VWS V14.00,2013-08-26 21:39:00,
2013-08-26 17:44:00,77.5,69.0,30.18,West,270,0.0,0.0,75,0.00,,---,0.00,VWS V14.00,2013-08-26 21:44:00,
2013-08-26 17:49:00,77.9,69.7,30.18,WSW,248,0.0,0.0,76,0.00,,---,0.00,VWS V14.00,2013-08-26 21:49:00,
2013-08-26 17:54:00,77.7,69.5,30.18,WSW,248,0.0,0.0,76,0.00,,---,0.00,VWS V14.00,2013-08-26 21:54:00,
2013-08-26 17:59:00,77.7,69.5,30.18,WSW,248,0.0,0.0,76,0.00,,---,0.00,VWS V14.00,2013-08-26 21:59:00,
2013-08-26 18:04:00,77.7,69.9,30.18,WSW,248,0.0,0.0,77,0.00,,---,0.00,VWS V14.00,2013-08-26 22:04:00,
2013-08-26 18:09:00,77.7,69.9,30.18,WSW,248,0.0,0.0,77,0.00,,---,0.00,VWS V14.00,2013-08-26 22:09:00,
2013-08-26 18:14:00,77.5,69.7,30.18,WSW,248,0.0,0.0,77,0.00,,---,0.00,VWS V14.00,2013-08-26 22:14:00,
2013-08-26 18:19:00,77.0,69.6,30.18,NNW,338,0.0,0.0,78,0.00,,---,0.00,VWS V14.00,2013-08-26 22:19:00,
2013-08-26 18:24:00,76.6,69.2,30.18,NNW,338,0.0,0.0,78,0.00,,---,0.00,VWS V14.00,2013-08-26 22:24:00,
2013-08-26 18:29:00,75.9,68.9,30.18,NNW,338,0.0,0.0,79,0.00,,---,0.00,VWS V14.00,2013-08-26 22:29:00,
2013-08-26 18:34:00,75.7,69.1,30.18,NNW,338,0.0,0.0,80,0.00,,---,0.00,VWS V14.00,2013-08-26 22:34:00,
2013-08-26 18:39:00,75.2,68.6,30.18,NNW,338,0.0,0.0,80,0.00,,---,0.00,VWS V14.00,2013-08-26 22:39:00,
2013-08-26 18:44:00,75.0,68.8,30.18,NNW,338,0.0,0.0,81,0.00,,---,0.00,VWS V14.00,2013-08-26 22:44:00,
2013-08-26 18:49:00,74.8,68.6,30.18,NNW,338,0.0,0.0,81,0.00,,---,0.00,VWS V14.00,2013-08-26 22:49:00,
2013-08-26 18:54:00,74.3,68.4,30.17,NNW,338,0.0,0.0,82,0.00,,---,0.00,VWS V14.00,2013-08-26 22:54:00,
2013-08-26 18:59:00,73.9,68.1,30.17,NNW,338,0.0,0.0,82,0.00,,---,0.00,VWS V14.00,2013-08-26 22:59:00,
2013-08-26 19:04:00,73.5,68.0,30.17,NNW,338,0.0,0.0,83,0.00,,---,0.00,VWS V14.00,2013-08-26 23:04:00,
2013-08-26 19:09:00,73.0,67.5,30.17,NNW,338,0.0,0.0,83,0.00,,---,0.00,VWS V14.00,2013-08-26 23:09:00,
2013-08-26 19:14:00,72.6,67.5,30.17,NNW,338,0.0,0.0,84,0.00,,---,0.00,VWS V14.00,2013-08-26 23:14:00,
2013-08-26 19:19:00,72.3,67.2,30.17,NNW,338,0.0,0.0,84,0.00,,---,0.00,VWS V14.00,2013-08-26 23:19:00,
2013-08-26 19:24:00,71.9,67.2,30.17,NNW,338,0.0,0.0,85,0.00,,---,0.00,VWS V14.00,2013-08-26 23:24:00,
2013-08-26 19:29:00,71.6,66.9,30.17,NNW,338,0.0,0.0,85,0.00,,---,0.00,VWS V14.00,2013-08-26 23:29:00,
2013-08-26 19:34:00,71.2,66.8,30.16,NNW,338,0.0,0.0,86,0.00,,---,0.00,VWS V14.00,2013-08-26 23:34:00,
2013-08-26 19:39:00,70.7,66.7,30.16,NNW,338,0.0,0.0,87,0.00,,---,0.00,VWS V14.00,2013-08-26 23:39:00,
2013-08-26 19:44:00,70.3,66.2,30.16,NNW,338,0.0,0.0,87,0.00,,---,0.00,VWS V14.00,2013-08-26 23:44:00,
2013-08-26 19:49:00,70.1,66.1,30.16,NNW,338,0.0,0.0,87,0.00,,---,0.00,VWS V14.00,2013-08-26 23:49:00,
2013-08-26 19:54:00,69.8,65.8,30.16,NNW,338,0.0,0.0,87,0.00,,---,0.00,VWS V14.00,2013-08-26 23:54:00,
2013-08-26 19:59:00,69.2,65.5,30.16,NNW,338,0.0,0.0,88,0.00,,---,0.00,VWS V14.00,2013-08-26 23:59:00,
2013-08-26 20:04:00,68.9,65.2,30.16,NNW,338,0.0,0.0,88,0.00,,---,0.00,VWS V14.00,2013-08-27 00:04:00,
2013-08-26 20:09:00,68.3,64.9,30.16,NNW,338,0.0,0.0,89,0.00,,---,0.00,VWS V14.00,2013-08-27 00:09:00,
2013-08-26 20:14:00,68.0,64.6,30.16,NNW,338,0.0,0.0,89,0.00,,---,0.00,VWS V14.00,2013-08-27 00:14:00,
2013-08-26 20:19:00,67.8,64.4,30.16,NNW,338,0.0,0.0,89,0.00,,---,0.00,VWS V14.00,2013-08-27 00:19:00,
2013-08-26 20:24:00,67.2,64.2,30.16,NNW,338,0.0,0.0,90,0.00,,---,0.00,VWS V14.00,2013-08-27 00:24:00,
2013-08-26 20:29:00,66.9,63.9,30.17,NNW,338,0.0,0.0,90,0.00,,---,0.00,VWS V14.00,2013-08-27 00:29:00,
2013-08-26 20:34:00,66.7,63.7,30.16,NNW,338,0.0,0.0,90,0.00,,---,0.00,VWS V14.00,2013-08-27 00:34:00,
2013-08-26 20:39:00,66.5,63.8,30.16,NNW,338,0.0,0.0,91,0.00,,---,0.00,VWS V14.00,2013-08-27 00:39:00,
2013-08-26 20:44:00,66.2,63.5,30.16,NNW,338,0.0,0.0,91,0.00,,---,0.00,VWS V14.00,2013-08-27 00:44:00,
2013-08-26 20:49:00,66.0,63.6,30.16,NNW,338,0.0,0.0,92,0.00,,---,0.00,VWS V14.00,2013-08-27 00:49:00,
2013-08-26 20:54:00,65.8,63.4,30.16,NNW,338,0.0,0.0,92,0.00,,---,0.00,VWS V14.00,2013-08-27 00:54:00,
2013-08-26 20:59:00,65.4,63.0,30.16,NNW,338,0.0,0.0,92,0.00,,---,0.00,VWS V14.00,2013-08-27 00:59:00,
2013-08-26 21:04:00,65.3,62.9,30.17,NNW,338,0.0,0.0,92,0.00,,---,0.00,VWS V14.00,2013-08-27 01:04:00,
2013-08-26 21:09:00,65.1,63.0,30.17,NNW,338,0.0,0.0,93,0.00,,---,0.00,VWS V14.00,2013-08-27 01:09:00,
2013-08-26 21:14:00,64.9,62.8,30.17,NNW,338,0.0,0.0,93,0.00,,---,0.00,VWS V14.00,2013-08-27 01:14:00,
2013-08-26 21:19:00,64.7,62.9,30.17,NNW,338,0.0,0.0,94,0.00,,---,0.00,VWS V14.00,2013-08-27 01:19:00,
2013-08-26 21:24:00,64.4,27.8,30.17,NNW,338,0.0,0.0,25,0.00,,---,0.00,VWS V14.00,2013-08-27 01:24:00,
2013-08-26 21:29:00,64.2,62.4,30.17,NNW,338,0.0,0.0,94,0.00,,---,0.00,VWS V14.00,2013-08-27 01:29:00,
2013-08-26 21:34:00,64.0,62.2,30.17,NNW,338,0.0,0.0,94,0.00,,---,0.00,VWS V14.00,2013-08-27 01:34:00,
2013-08-26 21:39:00,63.8,62.3,30.17,NNW,338,0.0,0.0,95,0.00,,---,0.00,VWS V14.00,2013-08-27 01:39:00,
2013-08-26 21:44:00,63.6,62.2,30.17,NNW,338,0.0,0.0,95,0.00,,---,0.00,VWS V14.00,2013-08-27 01:44:00,
2013-08-26 21:49:00,63.5,62.0,30.17,NNW,338,0.0,0.0,95,0.00,,---,0.00,VWS V14.00,2013-08-27 01:49:00,
2013-08-26 21:54:00,63.3,61.8,30.17,NNW,338,0.0,0.0,95,0.00,,---,0.00,VWS V14.00,2013-08-27 01:54:00,
2013-08-26 21:59:00,63.1,61.7,30.17,NNW,338,0.0,0.0,95,0.00,,---,0.00,VWS V14.00,2013-08-27 01:59:00,
2013-08-26 22:04:00,62.9,61.5,30.17,NNW,338,0.0,0.0,95,0.00,,---,0.00,VWS V14.00,2013-08-27 02:04:00,
2013-08-26 22:09:00,62.7,61.2,30.17,NNW,338,0.0,0.0,95,0.00,,---,0.00,VWS V14.00,2013-08-27 02:09:00,
2013-08-26 22:14:00,62.6,61.5,30.17,NNW,338,0.0,0.0,96,0.00,,---,0.00,VWS V14.00,2013-08-27 02:14:00,
2013-08-26 22:19:00,62.4,61.2,30.18,NNW,338,0.0,0.0,96,0.00,,---,0.00,VWS V14.00,2013-08-27 02:19:00,
2013-08-26 22:24:00,62.4,61.2,30.17,NNW,338,0.0,0.0,96,0.00,,---,0.00,VWS V14.00,2013-08-27 02:24:00,
2013-08-26 22:29:00,62.4,61.2,30.18,NNW,338,0.0,0.0,96,0.00,,---,0.00,VWS V14.00,2013-08-27 02:29:00,
2013-08-26 22:34:00,62.2,61.0,30.18,NNW,338,0.0,0.0,96,0.00,,---,0.00,VWS V14.00,2013-08-27 02:34:00,
2013-08-26 22:39:00,62.0,60.8,30.18,NNW,338,0.0,0.0,96,0.00,,---,0.00,VWS V14.00,2013-08-27 02:39:00,
2013-08-26 22:44:00,61.8,60.9,30.18,NNW,338,0.0,0.0,97,0.00,,---,0.00,VWS V14.00,2013-08-27 02:44:00,
2013-08-26 22:49:00,61.7,60.8,30.18,NNW,338,0.0,0.0,97,0.00,,---,0.00,VWS V14.00,2013-08-27 02:49:00,
2013-08-26 22:55:00,61.5,60.6,30.18,NNW,338,0.0,0.0,97,0.00,,---,0.00,VWS V14.00,2013-08-27 02:55:00,
2013-08-26 23:00:00,61.5,60.6,30.18,NNW,338,0.0,0.0,97,0.00,,---,0.00,VWS V14.00,2013-08-27 03:00:00,
2013-08-26 23:05:00,61.5,60.9,30.18,NNW,338,0.0,0.0,98,0.00,,---,0.00,VWS V14.00,2013-08-27 03:05:00,
2013-08-26 23:10:00,61.3,60.7,30.18,NNW,338,0.0,0.0,98,0.00,,---,0.00,VWS V14.00,2013-08-27 03:10:00,
2013-08-26 23:15:00,61.3,60.7,30.18,NNW,338,0.0,0.0,98,0.00,,---,0.00,VWS V14.00,2013-08-27 03:15:00,
2013-08-26 23:20:00,61.1,60.5,30.18,NNW,338,0.0,0.0,98,0.00,,---,0.00,VWS V14.00,2013-08-27 03:20:00,
2013-08-26 23:25:00,60.9,60.3,30.18,NNW,338,0.0,0.0,98,0.00,,---,0.00,VWS V14.00,2013-08-27 03:25:00,
2013-08-26 23:30:00,60.9,60.3,30.18,NNW,338,0.0,0.0,98,0.00,,---,0.00,VWS V14.00,2013-08-27 03:30:00,
2013-08-26 23:35:00,60.9,60.3,30.18,NNW,338,0.0,0.0,98,0.00,,---,0.00,VWS V14.00,2013-08-27 03:35:00,
2013-08-26 23:40:00,60.6,60.0,30.18,NNW,338,0.0,0.0,98,0.00,,---,0.00,VWS V14.00,2013-08-27 03:40:00,
2013-08-26 23:45:00,60.6,60.0,30.18,NNW,338,0.0,0.0,98,0.00,,---,0.00,VWS V14.00,2013-08-27 03:45:00,
2013-08-26 23:50:00,60.6,60.0,30.18,NNW,338,0.0,0.0,98,0.00,,---,0.00,VWS V14.00,2013-08-27 03:50:00,
2013-08-26 23:55:00,60.4,60.1,30.18,NNW,338,0.0,0.0,99,0.00,,---,0.00,VWS V14.00,2013-08-27 03:55:00,